createdAt,value
2018-12-31T00:02:29.591Z,3.08
2018-12-31T00:05:00.627Z,5.60
2018-12-31T00:07:31.621Z,4.25
2018-12-31T00:10:03.173Z,3.52
2018-12-31T00:12:34.762Z,3.75
2018-12-31T00:15:06.705Z,2.83
2018-12-31T00:17:37.719Z,2.10
2018-12-31T00:20:09.336Z,3.98
2018-12-31T00:22:40.924Z,2.75
2018-12-31T00:25:13.071Z,4.70
2018-12-31T00:27:44.649Z,2.27
2018-12-31T00:30:16.521Z,2.12
2018-12-31T00:32:48.097Z,2.75
2018-12-31T00:35:19.750Z,3.02
2018-12-31T00:37:51.111Z,4.62
2018-12-31T00:40:22.445Z,4.05
2018-12-31T00:42:59.000Z,5.20
2018-12-31T00:45:27.908Z,3.70
2018-12-31T00:47:58.909Z,4.12
2018-12-31T00:50:30.293Z,3.10
2018-12-31T00:53:01.602Z,4.78
2018-12-31T00:55:34.944Z,2.98
2018-12-31T00:58:06.722Z,3.15
2018-12-31T01:00:38.648Z,2.17
2018-12-31T01:03:10.822Z,2.95
2018-12-31T01:05:42.684Z,1.57
2018-12-31T01:08:14.492Z,3.62
2018-12-31T01:10:46.973Z,2.95
2018-12-31T01:13:18.565Z,1.85
2018-12-31T01:15:49.590Z,3.72
2018-12-31T01:18:20.920Z,2.35
2018-12-31T01:20:52.491Z,4.75
2018-12-31T01:23:24.369Z,5.53
2018-12-31T01:25:56.246Z,4.17
2018-12-31T01:28:27.839Z,6.05
2018-12-31T01:30:59.415Z,3.58
2018-12-31T01:33:31.192Z,5.55
2018-12-31T01:36:02.498Z,6.92
2018-12-31T01:38:34.047Z,4.15
2018-12-31T01:41:05.062Z,4.70
2018-12-31T01:43:37.137Z,4.15
2018-12-31T01:46:09.059Z,6.28
2018-12-31T01:48:41.941Z,4.67
2018-12-31T01:51:13.282Z,4.53
2018-12-31T01:53:45.369Z,4.13
2018-12-31T01:56:17.309Z,7.58
2018-12-31T01:58:49.046Z,5.08
2018-12-31T02:01:21.026Z,4.33
2018-12-31T02:03:52.340Z,6.50
2018-12-31T02:06:23.621Z,4.25
2018-12-31T02:08:55.713Z,2.52
2018-12-31T02:11:27.795Z,5.30
2018-12-31T02:13:58.795Z,6.87
2018-12-31T02:16:30.461Z,2.30
2018-12-31T02:19:02.311Z,2.77
2018-12-31T02:21:34.298Z,2.77
2018-12-31T02:24:06.188Z,2.65
2018-12-31T02:26:37.479Z,2.02
2018-12-31T02:29:09.342Z,3.58
2018-12-31T02:31:40.758Z,6.53
2018-12-31T02:34:12.403Z,2.70
2018-12-31T02:36:43.958Z,3.65
2018-12-31T02:39:15.300Z,2.58
2018-12-31T02:41:46.657Z,4.72
2018-12-31T02:44:18.191Z,2.30
2018-12-31T02:46:50.115Z,4.40
2018-12-31T02:49:21.748Z,3.05
2018-12-31T02:51:53.403Z,2.08
2018-12-31T02:54:25.495Z,4.12
2018-12-31T02:56:57.413Z,2.90
2018-12-31T02:59:28.756Z,2.62
2018-12-31T03:02:00.655Z,2.47
2018-12-31T03:04:32.282Z,2.60
2018-12-31T03:07:04.031Z,2.85
2018-12-31T03:09:35.802Z,2.72
2018-12-31T03:12:07.819Z,2.42
2018-12-31T03:14:39.874Z,3.30
2018-12-31T03:17:11.182Z,3.52
2018-12-31T03:19:43.269Z,2.98
2018-12-31T03:22:15.393Z,3.17
2018-12-31T03:24:47.062Z,3.60
2018-12-31T03:27:22.342Z,4.58
2018-12-31T03:29:52.225Z,3.97
2018-12-31T03:32:24.180Z,3.33
2018-12-31T03:34:56.447Z,3.58
2018-12-31T03:37:28.526Z,3.30
2018-12-31T03:39:59.571Z,4.93
2018-12-31T03:42:31.412Z,4.17
2018-12-31T03:45:03.187Z,4.50
2018-12-31T03:47:34.490Z,5.10
2018-12-31T03:50:06.611Z,4.20
2018-12-31T03:52:37.995Z,4.70
2018-12-31T03:55:09.271Z,5.73
2018-12-31T03:57:41.079Z,7.43
2018-12-31T04:00:12.655Z,7.20
2018-12-31T04:02:44.035Z,7.27
2018-12-31T04:05:15.794Z,6.13
2018-12-31T04:07:52.999Z,7.78
2018-12-31T04:10:21.250Z,7.23
2018-12-31T04:12:52.910Z,7.63
2018-12-31T04:15:24.662Z,8.27
2018-12-31T04:17:56.413Z,8.00
2018-12-31T04:20:27.973Z,7.70
2018-12-31T04:22:59.608Z,7.23
2018-12-31T04:25:31.260Z,10.07
2018-12-31T04:28:03.373Z,10.83
2018-12-31T04:30:35.319Z,7.25
2018-12-31T04:33:06.972Z,11.30
2018-12-31T04:35:38.596Z,10.25
2018-12-31T04:38:10.217Z,8.00
2018-12-31T04:40:41.830Z,7.97
2018-12-31T04:43:13.792Z,7.23
2018-12-31T04:45:45.307Z,7.67
2018-12-31T04:48:17.227Z,6.63
2018-12-31T04:50:49.076Z,5.73
2018-12-31T04:53:20.800Z,5.40
2018-12-31T04:55:52.042Z,5.90
2018-12-31T04:58:24.032Z,7.17
2018-12-31T05:00:55.588Z,6.23
2018-12-31T05:03:27.474Z,8.03
2018-12-31T05:05:59.237Z,7.17
2018-12-31T05:08:30.547Z,6.67
2018-12-31T05:11:01.569Z,7.43
2018-12-31T05:13:33.334Z,8.90
2018-12-31T05:16:04.851Z,7.07
2018-12-31T05:18:36.678Z,6.83
2018-12-31T05:21:08.299Z,6.87
2018-12-31T05:23:39.552Z,5.30
2018-12-31T05:26:10.579Z,5.17
2018-12-31T05:28:42.107Z,5.77
2018-12-31T05:31:13.670Z,5.50
2018-12-31T05:33:44.925Z,6.67
2018-12-31T05:36:16.571Z,6.90
2018-12-31T05:38:48.313Z,7.53
2018-12-31T05:41:19.907Z,7.58
2018-12-31T05:43:51.743Z,8.80
2018-12-31T05:46:23.314Z,10.77
2018-12-31T05:48:54.633Z,10.78
2018-12-31T05:51:26.388Z,12.50
2018-12-31T05:53:57.971Z,11.93
2018-12-31T05:56:29.633Z,13.33
2018-12-31T05:59:01.451Z,15.40
2018-12-31T06:01:33.250Z,13.13
2018-12-31T06:04:05.143Z,13.03
2018-12-31T06:06:37.072Z,13.13
2018-12-31T06:09:09.730Z,14.53
2018-12-31T06:11:41.298Z,12.80
2018-12-31T06:14:12.614Z,13.10
2018-12-31T06:16:44.651Z,12.83
2018-12-31T06:19:16.470Z,12.13
2018-12-31T06:21:47.597Z,12.57
2018-12-31T06:24:19.165Z,12.03
2018-12-31T06:26:50.793Z,12.50
2018-12-31T06:29:21.787Z,14.70
2018-12-31T06:31:53.407Z,11.57
2018-12-31T06:34:25.294Z,12.23
2018-12-31T06:36:57.021Z,11.73
2018-12-31T06:39:28.593Z,12.93
2018-12-31T06:42:00.364Z,11.13
2018-12-31T06:44:31.984Z,12.17
2018-12-31T06:47:03.753Z,11.10
2018-12-31T06:49:34.752Z,13.47
2018-12-31T06:52:06.665Z,14.67
2018-12-31T06:54:37.988Z,15.20
2018-12-31T06:57:09.753Z,15.60
2018-12-31T06:59:41.610Z,16.13
2018-12-31T07:02:13.264Z,15.83
2018-12-31T07:04:45.177Z,17.43
2018-12-31T07:07:16.956Z,18.93
2018-12-31T07:09:48.641Z,18.60
2018-12-31T07:12:20.296Z,15.73
2018-12-31T07:14:51.634Z,17.83
2018-12-31T07:17:26.050Z,15.37
2018-12-31T07:19:57.492Z,16.17
2018-12-31T07:22:29.069Z,15.87
2018-12-31T07:25:01.254Z,15.93
2018-12-31T07:27:32.524Z,16.27
2018-12-31T07:30:03.647Z,15.85
2018-12-31T07:32:35.460Z,15.53
2018-12-31T07:35:07.228Z,14.90
2018-12-31T07:37:39.212Z,14.73
2018-12-31T07:40:10.847Z,17.10
2018-12-31T07:42:42.503Z,12.60
2018-12-31T07:45:14.393Z,15.37
2018-12-31T07:47:46.004Z,13.93
2018-12-31T07:50:17.755Z,16.07
2018-12-31T07:52:49.424Z,15.60
2018-12-31T07:55:21.184Z,14.67
2018-12-31T07:57:52.435Z,14.13
2018-12-31T08:00:24.533Z,18.13
2018-12-31T08:02:56.460Z,15.97
2018-12-31T08:05:27.802Z,17.00
2018-12-31T08:07:59.333Z,16.40
2018-12-31T08:10:31.018Z,15.67
2018-12-31T08:13:02.647Z,14.43
2018-12-31T08:15:34.701Z,15.13
2018-12-31T08:18:06.818Z,17.07
2018-12-31T08:20:38.892Z,15.60
2018-12-31T08:23:10.721Z,17.13
2018-12-31T08:25:42.066Z,15.60
2018-12-31T08:28:13.721Z,17.17
2018-12-31T08:30:45.832Z,14.23
2018-12-31T08:33:16.857Z,15.33
2018-12-31T08:35:48.097Z,14.73
2018-12-31T08:38:19.127Z,14.03
2018-12-31T08:40:51.014Z,16.63
2018-12-31T08:43:22.604Z,15.13
2018-12-31T08:45:54.182Z,14.73
2018-12-31T08:48:25.832Z,14.63
2018-12-31T08:50:57.913Z,14.83
2018-12-31T08:53:29.442Z,18.27
2018-12-31T08:56:01.325Z,25.73
2018-12-31T08:58:33.147Z,24.93
2018-12-31T09:01:04.149Z,37.87
2018-12-31T09:03:36.021Z,24.07
2018-12-31T09:06:07.901Z,16.47
2018-12-31T09:08:40.065Z,14.13
2018-12-31T09:11:11.857Z,16.27
2018-12-31T09:13:44.147Z,11.93
2018-12-31T09:16:15.772Z,12.43
2018-12-31T09:18:47.434Z,11.63
2018-12-31T09:21:18.745Z,9.67
2018-12-31T09:23:50.335Z,8.80
2018-12-31T09:26:22.197Z,10.60
2018-12-31T09:28:54.141Z,9.57
2018-12-31T09:31:26.338Z,9.27
2018-12-31T09:33:58.534Z,9.17
2018-12-31T09:36:30.352Z,10.67
2018-12-31T09:39:01.843Z,9.97
2018-12-31T09:41:34.977Z,11.50
2018-12-31T09:44:06.602Z,7.53
2018-12-31T09:46:38.631Z,6.57
2018-12-31T09:49:10.694Z,6.40
2018-12-31T09:51:41.962Z,4.67
2018-12-31T09:54:13.561Z,3.30
2018-12-31T09:56:45.212Z,3.80
2018-12-31T09:59:17.451Z,2.43
2018-12-31T10:01:49.542Z,3.50
2018-12-31T10:04:21.598Z,2.87
2018-12-31T10:06:53.367Z,4.70
2018-12-31T10:09:25.027Z,4.37
2018-12-31T10:11:56.649Z,3.67
2018-12-31T10:14:28.388Z,3.33
2018-12-31T10:17:00.702Z,3.30
2018-12-31T10:19:32.442Z,4.30
2018-12-31T10:22:04.011Z,3.10
2018-12-31T10:24:35.932Z,3.20
2018-12-31T10:27:07.807Z,2.93
2018-12-31T10:29:39.698Z,3.47
2018-12-31T10:32:11.515Z,3.83
2018-12-31T10:34:43.082Z,4.87
2018-12-31T10:37:14.722Z,3.63
2018-12-31T10:39:46.061Z,3.97
2018-12-31T10:42:17.626Z,5.40
2018-12-31T10:44:49.423Z,2.40
2018-12-31T10:47:20.972Z,3.77
2018-12-31T10:49:52.538Z,3.03
2018-12-31T10:52:24.521Z,2.50
2018-12-31T10:54:55.526Z,1.63
2018-12-31T10:57:27.722Z,1.87
2018-12-31T10:59:59.571Z,2.13
2018-12-31T11:02:30.938Z,1.80
2018-12-31T11:05:01.951Z,1.97
2018-12-31T11:07:33.453Z,2.90
2018-12-31T11:10:05.995Z,2.50
2018-12-31T11:12:37.279Z,2.97
2018-12-31T11:15:08.623Z,1.50
2018-12-31T11:17:40.742Z,2.10
2018-12-31T11:20:12.379Z,2.20
2018-12-31T11:22:43.999Z,1.27
2018-12-31T11:25:15.882Z,1.90
2018-12-31T11:27:47.691Z,1.20
2018-12-31T11:30:19.273Z,1.30
2018-12-31T11:32:51.129Z,3.67
2018-12-31T11:35:22.933Z,2.13
2018-12-31T11:37:54.580Z,1.60
2018-12-31T11:40:26.442Z,2.53
2018-12-31T11:42:58.183Z,1.40
2018-12-31T11:45:29.451Z,1.23
2018-12-31T11:48:01.771Z,1.20
2018-12-31T11:50:33.569Z,1.23
2018-12-31T11:53:04.915Z,0.93
2018-12-31T11:55:36.281Z,1.40
2018-12-31T11:58:08.458Z,1.20
2018-12-31T12:00:40.202Z,1.10
2018-12-31T12:03:12.117Z,1.17
2018-12-31T12:05:43.699Z,1.13
2018-12-31T12:08:15.028Z,1.23
2018-12-31T12:10:46.419Z,0.93
2018-12-31T12:13:17.416Z,1.27
2018-12-31T12:15:49.526Z,2.10
2018-12-31T12:18:21.136Z,0.73
2018-12-31T12:20:53.982Z,0.80
2018-12-31T12:23:25.633Z,0.80
2018-12-31T12:25:57.447Z,2.73
2018-12-31T12:28:28.982Z,3.83
2018-12-31T12:31:00.863Z,2.90
2018-12-31T12:33:32.464Z,1.20
2018-12-31T12:36:04.026Z,2.97
2018-12-31T12:38:35.591Z,0.90
2018-12-31T12:41:07.912Z,1.50
2018-12-31T12:43:39.718Z,0.93
2018-12-31T12:46:11.815Z,1.40
2018-12-31T12:48:43.781Z,2.00
2018-12-31T12:51:15.803Z,1.67
2018-12-31T12:53:47.084Z,1.67
2018-12-31T12:56:18.769Z,2.83
2018-12-31T12:58:50.802Z,2.07
2018-12-31T13:01:21.818Z,1.93
2018-12-31T13:03:53.946Z,1.00
2018-12-31T13:06:25.254Z,1.10
2018-12-31T13:08:57.220Z,1.37
2018-12-31T13:11:28.530Z,1.03
2018-12-31T13:14:00.769Z,1.00
2018-12-31T13:16:32.396Z,1.30
2018-12-31T13:19:04.244Z,0.90
2018-12-31T13:21:36.391Z,1.30
2018-12-31T13:24:07.968Z,1.50
2018-12-31T13:26:43.559Z,1.30
2018-12-31T13:29:13.658Z,1.20
2018-12-31T13:31:44.954Z,1.30
2018-12-31T13:34:16.744Z,1.27
2018-12-31T13:36:48.364Z,1.63
2018-12-31T13:39:19.632Z,2.73
2018-12-31T13:41:51.659Z,2.30
2018-12-31T13:44:23.671Z,1.27
2018-12-31T13:46:54.975Z,1.60
2018-12-31T13:49:27.406Z,3.30
2018-12-31T13:51:59.014Z,5.23
2018-12-31T13:54:31.204Z,14.00
2018-12-31T13:57:02.835Z,9.17
2018-12-31T13:59:35.250Z,5.10
2018-12-31T14:02:06.882Z,6.87
2018-12-31T14:04:39.178Z,4.70
2018-12-31T14:07:11.052Z,4.80
2018-12-31T14:09:42.651Z,3.37
2018-12-31T14:12:14.242Z,3.90
2018-12-31T14:14:46.175Z,3.63
2018-12-31T14:17:17.706Z,2.50
2018-12-31T14:19:50.395Z,2.80
2018-12-31T14:22:21.949Z,2.77
2018-12-31T14:24:53.851Z,3.40
2018-12-31T14:27:25.579Z,3.50
2018-12-31T14:29:57.148Z,3.90
2018-12-31T14:32:29.189Z,4.03
2018-12-31T14:35:00.737Z,3.20
2018-12-31T14:37:33.710Z,3.63
2018-12-31T14:40:04.862Z,3.83
2018-12-31T14:42:36.201Z,4.23
2018-12-31T14:45:07.444Z,4.30
2018-12-31T14:47:39.638Z,4.07
2018-12-31T14:50:11.300Z,4.00
2018-12-31T14:52:42.947Z,5.23
2018-12-31T14:55:14.512Z,5.13
2018-12-31T14:57:45.921Z,4.30
2018-12-31T15:00:18.021Z,3.63
2018-12-31T15:02:50.158Z,4.43
2018-12-31T15:05:22.020Z,5.20
2018-12-31T15:07:53.915Z,4.03
2018-12-31T15:10:26.378Z,4.30
2018-12-31T15:12:57.679Z,4.93
2018-12-31T15:15:28.967Z,5.30
2018-12-31T15:18:00.303Z,5.43
2018-12-31T15:20:32.136Z,7.10
2018-12-31T15:23:04.404Z,6.67
2018-12-31T15:25:36.238Z,6.23
2018-12-31T15:28:07.517Z,7.47
2018-12-31T15:30:39.200Z,9.37
2018-12-31T15:33:11.034Z,8.30
2018-12-31T15:35:43.287Z,10.20
2018-12-31T15:38:14.284Z,14.60
2018-12-31T15:40:45.580Z,16.33
2018-12-31T15:43:17.186Z,18.27
2018-12-31T15:45:49.132Z,24.07
2018-12-31T15:48:20.764Z,23.53
2018-12-31T15:50:52.032Z,21.70
2018-12-31T15:53:23.595Z,15.47
2018-12-31T15:55:55.237Z,16.83
2018-12-31T15:58:26.794Z,16.50
2018-12-31T16:00:58.698Z,22.50
2018-12-31T16:03:30.444Z,15.60
2018-12-31T16:06:02.381Z,14.73
2018-12-31T16:08:33.913Z,13.23
2018-12-31T16:11:05.404Z,13.00
2018-12-31T16:13:36.713Z,16.67
2018-12-31T16:16:09.059Z,18.53
2018-12-31T16:18:40.793Z,19.70
2018-12-31T16:21:12.723Z,18.30
2018-12-31T16:23:44.161Z,14.17
2018-12-31T16:26:16.485Z,17.07
2018-12-31T16:28:48.058Z,15.33
2018-12-31T16:31:20.026Z,20.63
2018-12-31T16:33:51.851Z,21.77
2018-12-31T16:36:23.132Z,25.40
2018-12-31T16:38:54.697Z,19.97
2018-12-31T16:41:26.281Z,16.97
2018-12-31T16:43:58.077Z,67.43
2018-12-31T16:46:29.868Z,86.07
2018-12-31T16:49:02.142Z,61.70
2018-12-31T16:51:33.696Z,44.93
2018-12-31T16:54:05.760Z,50.97
2018-12-31T16:56:37.633Z,24.50
2018-12-31T16:59:09.553Z,17.13
2018-12-31T17:01:41.136Z,15.63
2018-12-31T17:04:12.786Z,16.03
2018-12-31T17:06:44.648Z,13.17
2018-12-31T17:09:17.128Z,10.07
2018-12-31T17:11:48.959Z,9.23
2018-12-31T17:14:20.526Z,11.00
2018-12-31T17:16:51.966Z,36.10
2018-12-31T17:19:23.664Z,32.50
2018-12-31T17:21:55.293Z,46.30
2018-12-31T17:24:26.643Z,34.37
2018-12-31T17:26:58.190Z,32.03
2018-12-31T17:29:29.521Z,34.80
2018-12-31T17:32:01.079Z,18.63
2018-12-31T17:34:33.256Z,26.00
2018-12-31T17:37:05.120Z,29.07
2018-12-31T17:39:36.547Z,41.83
2018-12-31T17:42:09.805Z,117.93
2018-12-31T17:44:41.419Z,107.07
2018-12-31T17:47:13.717Z,47.00
2018-12-31T17:49:45.315Z,80.53
2018-12-31T17:52:17.517Z,100.80
2018-12-31T17:54:49.154Z,61.77
2018-12-31T17:57:20.828Z,65.87
2018-12-31T17:59:53.980Z,87.23
2018-12-31T18:02:25.857Z,96.00
2018-12-31T18:04:57.211Z,87.67
2018-12-31T18:07:28.862Z,93.63
2018-12-31T18:10:01.033Z,98.10
2018-12-31T18:12:32.660Z,102.27
2018-12-31T18:15:04.608Z,89.77
2018-12-31T18:17:36.620Z,87.23
2018-12-31T18:20:09.892Z,78.93
2018-12-31T18:22:41.968Z,81.70
2018-12-31T18:25:13.322Z,91.10
2018-12-31T18:27:45.399Z,98.33
2018-12-31T18:30:17.036Z,132.70
2018-12-31T18:32:48.700Z,123.00
2018-12-31T18:35:20.559Z,120.83
2018-12-31T18:37:51.591Z,213.23
2018-12-31T18:40:23.000Z,131.23
2018-12-31T18:42:54.583Z,82.93
2018-12-31T18:45:26.653Z,86.60
2018-12-31T18:47:58.427Z,83.40
2018-12-31T18:50:30.058Z,73.10
2018-12-31T18:53:01.380Z,60.70
2018-12-31T18:55:33.281Z,59.13
2018-12-31T18:58:04.871Z,59.17
2018-12-31T19:00:36.384Z,64.30
2018-12-31T19:03:08.241Z,65.50
2018-12-31T19:05:39.860Z,58.20
2018-12-31T19:08:11.666Z,53.17
2018-12-31T19:10:42.924Z,49.17
2018-12-31T19:13:15.138Z,49.80
2018-12-31T19:15:46.522Z,53.27
2018-12-31T19:18:18.493Z,51.63
2018-12-31T19:20:50.157Z,48.83
2018-12-31T19:23:21.801Z,41.77
2018-12-31T19:25:53.951Z,31.77
2018-12-31T19:28:26.696Z,60.87
2018-12-31T19:30:58.365Z,20.50
2018-12-31T19:33:29.839Z,9.77
2018-12-31T19:36:01.385Z,11.07
2018-12-31T19:38:32.387Z,6.90
2018-12-31T19:41:04.100Z,9.67
2018-12-31T19:43:35.955Z,9.20
2018-12-31T19:46:07.175Z,11.40
2018-12-31T19:48:38.512Z,11.27
2018-12-31T19:51:10.159Z,10.93
2018-12-31T19:53:43.282Z,10.37
2018-12-31T19:56:14.827Z,10.17
2018-12-31T19:58:46.358Z,7.93
2018-12-31T20:01:18.310Z,8.20
2018-12-31T20:03:50.221Z,7.43
2018-12-31T20:06:21.548Z,5.77
2018-12-31T20:08:52.554Z,6.10
2018-12-31T20:11:24.648Z,6.10
2018-12-31T20:13:55.959Z,7.77
2018-12-31T20:16:28.697Z,14.57
2018-12-31T20:19:00.333Z,16.77
2018-12-31T20:21:31.957Z,13.40
2018-12-31T20:24:03.531Z,14.03
2018-12-31T20:26:35.268Z,20.07
2018-12-31T20:29:06.965Z,10.57
2018-12-31T20:31:38.195Z,10.10
2018-12-31T20:34:10.100Z,5.90
2018-12-31T20:36:41.524Z,7.10
2018-12-31T20:39:12.867Z,5.63
2018-12-31T20:41:43.863Z,9.43
2018-12-31T20:44:15.616Z,10.77
2018-12-31T20:46:47.205Z,12.23
2018-12-31T20:49:18.522Z,11.47
2018-12-31T20:51:50.056Z,9.33
2018-12-31T20:54:21.809Z,7.37
2018-12-31T20:56:53.290Z,8.53
2018-12-31T20:59:25.409Z,7.13
2018-12-31T21:01:56.995Z,6.33
2018-12-31T21:04:28.280Z,7.13
2018-12-31T21:06:59.830Z,6.77
2018-12-31T21:09:31.598Z,5.43
2018-12-31T21:12:03.522Z,6.03
2018-12-31T21:14:35.440Z,8.53
2018-12-31T21:17:07.371Z,5.40
2018-12-31T21:19:38.788Z,5.83
2018-12-31T21:22:10.677Z,8.37
2018-12-31T21:24:42.242Z,6.17
2018-12-31T21:27:14.401Z,5.57
2018-12-31T21:29:46.271Z,7.67
2018-12-31T21:32:18.123Z,7.73
2018-12-31T21:34:49.903Z,8.73
2018-12-31T21:37:21.523Z,14.13
2018-12-31T21:39:53.155Z,10.53
2018-12-31T21:42:24.793Z,9.07
2018-12-31T21:44:56.150Z,20.53
2018-12-31T21:47:27.152Z,16.87
2018-12-31T21:49:58.679Z,18.63
2018-12-31T21:52:30.431Z,11.43
2018-12-31T21:55:01.680Z,12.00
2018-12-31T21:57:34.016Z,26.37
2018-12-31T22:00:05.995Z,24.20
2018-12-31T22:02:37.325Z,19.07
2018-12-31T22:05:08.414Z,11.97
2018-12-31T22:07:40.020Z,16.80
2018-12-31T22:10:11.577Z,18.30
2018-12-31T22:12:43.574Z,10.43
2018-12-31T22:15:14.880Z,13.00
2018-12-31T22:17:46.218Z,10.47
2018-12-31T22:20:17.751Z,11.20
2018-12-31T22:22:49.044Z,8.57
2018-12-31T22:25:20.925Z,7.93
2018-12-31T22:27:52.880Z,6.40
2018-12-31T22:30:24.390Z,9.00
2018-12-31T22:32:55.989Z,8.47
2018-12-31T22:35:27.648Z,8.80
2018-12-31T22:37:59.583Z,16.90
2018-12-31T22:40:31.619Z,9.90
2018-12-31T22:43:03.397Z,10.83
2018-12-31T22:45:34.723Z,10.03
2018-12-31T22:48:06.655Z,9.13
2018-12-31T22:50:38.716Z,14.23
2018-12-31T22:53:10.775Z,11.10
2018-12-31T22:55:42.621Z,10.97
2018-12-31T22:58:14.636Z,12.50
2018-12-31T23:00:46.383Z,11.97
2018-12-31T23:03:17.905Z,9.20
2018-12-31T23:05:49.540Z,13.40
2018-12-31T23:08:21.615Z,90.73
2018-12-31T23:10:53.258Z,102.70
2018-12-31T23:13:24.426Z,323.47
2018-12-31T23:15:56.354Z,155.00
2018-12-31T23:18:28.331Z,110.07
2018-12-31T23:21:00.168Z,100.37
2018-12-31T23:23:31.448Z,97.10
2018-12-31T23:26:03.176Z,65.07
2018-12-31T23:28:35.055Z,120.50
2018-12-31T23:31:06.093Z,120.77
2018-12-31T23:33:38.217Z,95.70
2018-12-31T23:36:09.829Z,48.63
2018-12-31T23:38:41.502Z,66.33
2018-12-31T23:41:12.813Z,43.13
2018-12-31T23:43:44.468Z,50.07
2018-12-31T23:46:15.923Z,217.17
2018-12-31T23:48:47.981Z,74.97
2018-12-31T23:51:19.834Z,98.73
2018-12-31T23:53:51.417Z,47.10
2018-12-31T23:56:22.956Z,28.97
2018-12-31T23:58:54.788Z,14.97
